Flugplatz Hohn Airport

Bericht für ETNH

vom 23.08. um 12:20 UTC

Wind 8 kt aus 240°

Sichtweite 10 km oder mehr

aufgebrochene Bewölkung in 29000 ft

Temperatur 23.0°C

Taupunkt 13.0°C

Luftfeuchtigkeit 53%

Luftdruck 1025 hPa

ETNH 231220Z 24008KT 9999 BKN290 23/13 Q1025 BLU+BLU+

Prognose für ETNH

vom 23.08. um 00:00 UTC

Zwischen 00:00 UTC und 00:00 UTC

Wind 7 kt aus 220°

Sichtweite 10 km oder mehr

keine signifikanten Wettererscheinungen

aufgebrochene Bewölkung in 28000 ft


Zwischen 00:00 und 00:00 UTC übergehend zu

Wind 5 kt aus 280°

Sichtweite 10 km oder mehr

keine signifikanten Wettererscheinungen

aufgelockert bewölkt in 15000 ft

aufgelockert bewölkt in 28000 ft

TAF ETNH 231005Z 2311/2323 22007KT 9999 NSW BKN280 BECMG 2315/2317 28005KT 9999 NSW SCT150 SCT280 BY ETGL
Impressum